createdAt,value
2023-02-11T01:02:03.742Z,43.92
2023-02-11T01:02:35.980Z,42.20
2023-02-11T01:03:08.881Z,42.22
2023-02-11T01:03:43.905Z,43.28
2023-02-11T01:04:16.326Z,41.22
2023-02-11T01:04:48.576Z,42.08
2023-02-11T01:05:24.303Z,44.42
2023-02-11T01:05:56.562Z,36.17
2023-02-11T01:06:28.648Z,42.17
2023-02-11T01:07:03.314Z,36.60
2023-02-11T01:07:35.876Z,43.25
2023-02-11T01:08:08.083Z,42.75
2023-02-11T01:08:42.929Z,32.47
2023-02-11T01:09:15.146Z,40.63
2023-02-11T01:09:47.266Z,31.60
2023-02-11T01:10:22.019Z,34.05
2023-02-11T01:10:55.833Z,134.82
2023-02-11T01:11:27.923Z,46.55
2023-02-11T01:12:05.537Z,41.85
2023-02-11T01:12:37.909Z,35.80
2023-02-11T01:13:10.236Z,41.10
2023-02-11T01:13:45.618Z,42.00
2023-02-11T01:14:17.770Z,42.72
2023-02-11T01:14:50.021Z,44.53
2023-02-11T01:15:27.592Z,45.92
2023-02-11T01:16:00.838Z,34.97
2023-02-11T01:16:33.074Z,33.75
2023-02-11T01:17:10.463Z,60.42
2023-02-11T01:17:42.586Z,46.78
2023-02-11T01:18:14.673Z,44.25
2023-02-11T01:18:49.753Z,34.90
2023-02-11T01:19:22.990Z,39.67
2023-02-11T01:19:57.788Z,35.38
2023-02-11T01:20:29.927Z,49.22
2023-02-11T01:21:02.221Z,33.55
2023-02-11T01:21:34.302Z,37.05
2023-02-11T01:22:08.992Z,43.80
2023-02-11T01:22:41.137Z,43.75
2023-02-11T01:23:13.522Z,47.78
2023-02-11T01:23:48.449Z,38.55
2023-02-11T01:24:20.545Z,33.90
2023-02-11T01:24:52.681Z,47.17
2023-02-11T01:25:24.817Z,43.47
2023-02-11T01:26:00.132Z,34.20
2023-02-11T01:26:34.244Z,46.28
2023-02-11T01:27:06.403Z,34.63
2023-02-11T01:27:41.847Z,48.30
2023-02-11T01:28:17.680Z,41.42
2023-02-11T01:28:49.833Z,42.88
2023-02-11T01:29:24.917Z,46.65
2023-02-11T01:29:59.895Z,42.92
2023-02-11T01:30:32.269Z,55.72
2023-02-11T01:31:07.615Z,45.50
2023-02-11T01:31:39.745Z,42.10
2023-02-11T01:32:14.492Z,43.60
2023-02-11T01:32:49.199Z,34.42
2023-02-11T01:33:22.246Z,36.97
2023-02-11T01:33:56.890Z,34.75
2023-02-11T01:34:29.147Z,45.17
2023-02-11T01:35:01.428Z,39.55
2023-02-11T01:35:33.547Z,36.85
2023-02-11T01:36:09.704Z,39.67
2023-02-11T01:36:42.233Z,39.00
2023-02-11T01:37:16.889Z,34.70
2023-02-11T01:37:49.005Z,40.00
2023-02-11T01:38:24.039Z,61.08
2023-02-11T01:39:00.680Z,40.58
2023-02-11T01:39:34.004Z,47.90
2023-02-11T01:40:09.043Z,42.63
2023-02-11T01:40:43.709Z,43.72
2023-02-11T01:41:16.615Z,44.28
2023-02-11T01:41:49.225Z,33.50
2023-02-11T01:42:26.590Z,36.85
2023-02-11T01:42:58.713Z,41.05
2023-02-11T01:43:36.018Z,42.40
2023-02-11T01:44:33.150Z,36.97
2023-02-11T01:45:35.162Z,32.33
2023-02-11T01:46:35.965Z,34.45
2023-02-11T01:47:44.827Z,44.00
2023-02-11T01:48:21.345Z,32.90
2023-02-11T01:48:58.850Z,36.53
2023-02-11T01:49:33.056Z,39.85
2023-02-11T01:50:05.569Z,35.38
2023-02-11T01:50:40.325Z,46.15
2023-02-11T01:51:19.703Z,44.70
2023-02-11T01:51:56.886Z,38.70
2023-02-11T01:52:33.020Z,35.78
2023-02-11T01:53:20.045Z,40.60
2023-02-11T01:54:08.460Z,42.10
2023-02-11T01:54:59.422Z,47.72
2023-02-11T01:55:58.608Z,36.17
2023-02-11T01:56:46.650Z,42.10
2023-02-11T01:57:27.554Z,33.38
2023-02-11T01:58:04.448Z,39.10
2023-02-11T01:58:41.782Z,38.95
2023-02-11T01:59:21.248Z,37.47
2023-02-11T02:00:01.729Z,39.75
2023-02-11T02:00:49.352Z,43.65
2023-02-11T02:01:27.031Z,37.13
2023-02-11T02:02:04.811Z,54.10
2023-02-11T02:02:47.003Z,53.08
2023-02-11T02:03:22.783Z,45.78
2023-02-11T02:04:00.540Z,49.92
2023-02-11T02:04:42.940Z,35.28
2023-02-11T02:05:22.484Z,43.45
2023-02-11T02:06:00.075Z,58.67
2023-02-11T02:06:41.126Z,54.28
2023-02-11T02:07:20.357Z,61.00
2023-02-11T02:08:03.066Z,46.03
2023-02-11T02:08:39.276Z,54.83
2023-02-11T02:09:17.825Z,35.20
2023-02-11T02:09:58.868Z,42.38
2023-02-11T02:10:32.031Z,46.25
2023-02-11T02:11:05.158Z,48.50
2023-02-11T02:11:40.540Z,41.78
2023-02-11T02:12:12.693Z,50.80
2023-02-11T02:12:45.040Z,51.60
2023-02-11T02:13:20.510Z,46.42
2023-02-11T02:13:53.045Z,38.25
2023-02-11T02:14:26.742Z,37.05
2023-02-11T02:15:37.261Z,40.35
2023-02-11T02:16:13.964Z,35.00
2023-02-11T02:16:46.517Z,34.15
2023-02-11T02:17:41.247Z,33.38
2023-02-11T02:18:27.521Z,36.33
2023-02-11T02:19:36.144Z,33.38
2023-02-11T02:20:31.684Z,68.82
2023-02-11T02:21:50.067Z,56.78
2023-02-11T02:22:53.695Z,42.40
2023-02-11T02:23:36.636Z,43.13
2023-02-11T02:24:51.338Z,49.45
2023-02-11T02:25:51.337Z,51.80
2023-02-11T02:26:42.673Z,30.02
2023-02-11T02:27:41.809Z,40.40
2023-02-11T02:28:36.780Z,42.17
2023-02-11T02:29:43.493Z,42.70
2023-02-11T02:30:44.723Z,53.47
2023-02-11T02:31:52.819Z,45.78
2023-02-11T02:32:43.705Z,56.65
2023-02-11T02:33:29.895Z,45.92
2023-02-11T02:34:09.383Z,41.08
2023-02-11T02:34:49.372Z,41.33
2023-02-11T02:35:33.581Z,46.30
2023-02-11T02:36:18.750Z,45.30
2023-02-11T02:36:59.397Z,43.85
2023-02-11T02:37:37.187Z,45.45
2023-02-11T02:38:19.221Z,35.20
2023-02-11T02:38:56.636Z,35.85
2023-02-11T02:39:36.966Z,53.60
2023-02-11T02:40:20.513Z,47.13
2023-02-11T02:40:59.258Z,43.20
2023-02-11T02:41:33.824Z,41.72
2023-02-11T02:42:08.815Z,80.60
2023-02-11T02:42:44.640Z,38.90
2023-02-11T02:43:28.676Z,50.60
2023-02-11T02:44:01.257Z,45.63
2023-02-11T02:44:34.087Z,40.50
2023-02-11T02:45:12.039Z,42.65
2023-02-11T02:45:44.172Z,47.28
2023-02-11T02:46:18.837Z,49.65
2023-02-11T02:46:53.807Z,45.17
2023-02-11T02:47:26.020Z,41.70
2023-02-11T02:48:00.862Z,41.35
2023-02-11T02:48:36.569Z,43.65
2023-02-11T02:49:13.955Z,50.90
2023-02-11T02:49:46.119Z,46.97
2023-02-11T02:50:30.338Z,54.15
2023-02-11T02:51:14.856Z,44.80
2023-02-11T02:52:06.600Z,40.00
2023-02-11T02:52:46.990Z,47.53
2023-02-11T02:54:10.718Z,48.05
2023-02-11T02:55:20.688Z,49.50
2023-02-11T02:56:06.965Z,52.50
2023-02-11T02:56:48.347Z,42.28
2023-02-11T02:57:31.018Z,44.25
2023-02-11T02:58:44.304Z,69.45
2023-02-11T02:59:34.079Z,46.90
2023-02-11T03:00:20.661Z,65.97
2023-02-11T03:00:59.466Z,47.75
2023-02-11T03:01:42.533Z,58.20
2023-02-11T03:02:27.648Z,62.72
2023-02-11T03:03:15.931Z,46.92
2023-02-11T03:03:57.496Z,57.63
2023-02-11T03:04:37.535Z,52.78
2023-02-11T03:05:16.409Z,41.47
2023-02-11T03:05:56.588Z,47.90
2023-02-11T03:06:34.436Z,47.72
2023-02-11T03:07:15.533Z,50.10
2023-02-11T03:07:58.846Z,61.72
2023-02-11T03:08:34.851Z,53.35
2023-02-11T03:09:13.846Z,60.13
2023-02-11T03:09:51.512Z,63.60
2023-02-11T03:10:29.054Z,55.08
2023-02-11T03:11:06.145Z,45.92
2023-02-11T03:11:39.064Z,60.35
2023-02-11T03:12:13.565Z,49.53
2023-02-11T03:12:47.860Z,57.38
2023-02-11T03:13:27.864Z,50.55
2023-02-11T03:14:03.660Z,37.20
2023-02-11T03:14:36.370Z,66.53
2023-02-11T03:15:14.043Z,50.65
2023-02-11T03:15:49.197Z,52.13
2023-02-11T03:16:25.734Z,51.47
2023-02-11T03:17:02.866Z,53.53
2023-02-11T03:17:37.229Z,49.53
2023-02-11T03:18:15.868Z,63.50
2023-02-11T03:18:53.556Z,59.03
2023-02-11T03:19:33.511Z,51.28
2023-02-11T03:20:07.561Z,53.47
2023-02-11T03:20:45.127Z,48.63
2023-02-11T03:21:18.640Z,52.33
2023-02-11T03:21:53.701Z,45.88
2023-02-11T03:22:33.401Z,49.30
2023-02-11T03:23:12.917Z,42.60
2023-02-11T03:23:50.246Z,50.85
2023-02-11T03:24:31.100Z,42.05
2023-02-11T03:25:03.898Z,56.00
2023-02-11T03:25:53.347Z,44.13
2023-02-11T03:26:30.497Z,34.53
2023-02-11T03:27:13.550Z,69.80
2023-02-11T03:27:49.822Z,91.93
2023-02-11T03:28:30.088Z,114.07
2023-02-11T03:29:12.491Z,88.00
2023-02-11T03:29:51.747Z,87.82
2023-02-11T03:30:31.354Z,64.38
2023-02-11T03:31:12.488Z,67.47
2023-02-11T03:31:53.255Z,70.32
2023-02-11T03:32:31.781Z,36.25
2023-02-11T03:33:09.235Z,41.80
2023-02-11T03:33:55.965Z,62.47
2023-02-11T03:34:36.149Z,55.72
2023-02-11T03:35:17.681Z,53.53
2023-02-11T03:35:57.069Z,59.38
2023-02-11T03:36:38.576Z,62.50
2023-02-11T03:37:15.597Z,63.17
2023-02-11T03:37:52.097Z,46.88
2023-02-11T03:38:32.581Z,46.33
2023-02-11T03:39:41.265Z,62.67
2023-02-11T03:40:20.034Z,43.30
2023-02-11T03:40:55.519Z,75.55
2023-02-11T03:41:28.765Z,46.92
2023-02-11T03:42:03.035Z,47.67
2023-02-11T03:42:42.506Z,42.20
2023-02-11T03:43:18.940Z,43.78
2023-02-11T03:43:55.524Z,62.95
2023-02-11T03:44:35.991Z,47.25
2023-02-11T03:45:41.712Z,46.88
2023-02-11T03:46:21.058Z,47.80
2023-02-11T03:46:54.744Z,47.53
2023-02-11T03:47:30.249Z,46.65
2023-02-11T03:48:08.921Z,40.20
2023-02-11T03:48:49.547Z,48.75
2023-02-11T03:49:27.810Z,62.53
2023-02-11T03:50:02.986Z,49.88
2023-02-11T03:50:37.503Z,55.33
2023-02-11T03:51:15.089Z,66.60
2023-02-11T03:51:49.744Z,50.30
2023-02-11T03:52:24.634Z,48.40
2023-02-11T03:53:02.939Z,73.10
2023-02-11T03:53:36.713Z,55.05
2023-02-11T03:54:16.872Z,45.67
2023-02-11T03:54:57.228Z,45.10
2023-02-11T03:56:10.553Z,42.72
2023-02-11T03:57:18.169Z,47.70
2023-02-11T03:57:52.829Z,39.78
2023-02-11T03:58:25.162Z,49.88
2023-02-11T03:58:57.571Z,42.97
2023-02-11T03:59:32.446Z,61.67
2023-02-11T04:00:05.897Z,54.08
2023-02-11T04:00:44.889Z,44.95
2023-02-11T04:01:19.707Z,48.33
2023-02-11T04:01:52.237Z,48.08
2023-02-11T04:02:28.063Z,52.28
2023-02-11T04:03:02.824Z,76.75
2023-02-11T04:03:35.044Z,70.30
2023-02-11T04:04:10.079Z,62.92
2023-02-11T04:04:47.405Z,48.78
2023-02-11T04:05:19.735Z,37.30
2023-02-11T04:05:54.460Z,38.47
2023-02-11T04:06:26.569Z,43.88
2023-02-11T04:06:58.788Z,45.85
2023-02-11T04:07:33.743Z,81.32
2023-02-11T04:08:06.673Z,41.75
2023-02-11T04:08:38.852Z,49.08
2023-02-11T04:09:13.938Z,53.42
2023-02-11T04:09:46.211Z,55.42
2023-02-11T04:10:21.434Z,51.22
2023-02-11T04:10:53.556Z,37.53
2023-02-11T04:11:25.845Z,48.47
2023-02-11T04:11:57.945Z,48.63
2023-02-11T04:12:32.700Z,45.35
2023-02-11T04:13:04.785Z,69.68
2023-02-11T04:13:36.851Z,43.95
2023-02-11T04:14:11.489Z,39.97
2023-02-11T04:14:43.560Z,46.05
2023-02-11T04:15:15.801Z,48.85
2023-02-11T04:15:50.828Z,40.17
2023-02-11T04:16:23.123Z,59.15
2023-02-11T04:16:55.367Z,45.72
2023-02-11T04:17:30.057Z,42.03
2023-02-11T04:18:04.632Z,49.92
2023-02-11T04:18:36.725Z,70.78
2023-02-11T04:19:13.943Z,54.33
2023-02-11T04:19:46.024Z,44.58
2023-02-11T04:20:18.387Z,44.53
2023-02-11T04:20:53.640Z,49.50
2023-02-11T04:21:25.850Z,50.15
2023-02-11T04:21:58.094Z,42.90
2023-02-11T04:22:32.816Z,48.50
2023-02-11T04:23:05.151Z,75.70
2023-02-11T04:23:37.420Z,55.28
2023-02-11T04:24:12.333Z,47.55
2023-02-11T04:24:46.973Z,40.45
2023-02-11T04:25:19.294Z,58.00
2023-02-11T04:25:51.843Z,41.90
2023-02-11T04:26:26.838Z,49.65
2023-02-11T04:26:59.056Z,43.10
2023-02-11T04:27:31.465Z,42.88
2023-02-11T04:28:03.646Z,47.55
2023-02-11T04:28:38.420Z,51.42
2023-02-11T04:29:10.673Z,41.63
2023-02-11T04:29:42.828Z,53.50
2023-02-11T04:30:17.493Z,47.42
2023-02-11T04:30:50.678Z,53.72
2023-02-11T04:31:23.031Z,67.47
2023-02-11T04:31:58.107Z,48.40
2023-02-11T04:32:30.290Z,87.90
2023-02-11T04:33:02.566Z,56.25
2023-02-11T04:33:37.211Z,67.50
2023-02-11T04:34:14.792Z,65.57
2023-02-11T04:34:47.731Z,47.35
2023-02-11T04:35:22.407Z,56.53
2023-02-11T04:35:54.857Z,43.58
2023-02-11T04:36:29.590Z,46.05
2023-02-11T04:37:02.170Z,41.58
2023-02-11T04:37:41.572Z,50.83
2023-02-11T04:38:19.515Z,52.17
2023-02-11T04:38:51.618Z,54.28
2023-02-11T04:39:23.739Z,44.92
2023-02-11T04:39:55.881Z,109.30
2023-02-11T04:40:30.606Z,43.47
2023-02-11T04:41:02.741Z,48.55
2023-02-11T04:41:34.868Z,41.53
2023-02-11T04:42:12.306Z,39.03
2023-02-11T04:42:44.456Z,55.83
2023-02-11T04:43:16.585Z,52.22
2023-02-11T04:43:51.239Z,43.95
2023-02-11T04:44:23.370Z,41.03
2023-02-11T04:44:55.584Z,46.30
2023-02-11T04:45:30.259Z,43.45
2023-02-11T04:46:02.411Z,44.53
2023-02-11T04:46:36.143Z,43.72
2023-02-11T04:47:12.784Z,46.75
2023-02-11T04:47:44.931Z,49.40
2023-02-11T04:48:17.000Z,58.33
2023-02-11T04:48:51.902Z,57.03
2023-02-11T04:49:26.661Z,74.65
2023-02-11T04:49:58.775Z,53.88
2023-02-11T04:50:33.979Z,58.60
2023-02-11T04:51:06.555Z,48.75
2023-02-11T04:51:38.765Z,51.42
2023-02-11T04:52:16.242Z,41.08
2023-02-11T04:52:48.386Z,49.58
2023-02-11T04:53:20.478Z,45.83
2023-02-11T04:53:55.179Z,52.50
2023-02-11T04:54:27.476Z,52.10
2023-02-11T04:54:59.650Z,56.00
2023-02-11T04:55:34.320Z,50.35
2023-02-11T04:56:07.104Z,43.42
2023-02-11T04:56:39.493Z,45.97
2023-02-11T04:57:14.280Z,45.90
2023-02-11T04:57:46.365Z,53.22
2023-02-11T04:58:19.194Z,44.65
2023-02-11T04:58:53.832Z,42.95
2023-02-11T04:59:25.956Z,88.70
2023-02-11T04:59:58.093Z,57.38
2023-02-11T05:00:32.867Z,101.85
2023-02-11T05:01:08.710Z,64.40
2023-02-11T05:01:41.405Z,38.65
2023-02-11T05:02:16.376Z,56.63
2023-02-11T05:02:48.683Z,39.58
2023-02-11T05:03:20.844Z,46.85
2023-02-11T05:03:55.520Z,52.80
2023-02-11T05:04:30.719Z,41.10
2023-02-11T05:05:03.107Z,40.42
2023-02-11T05:05:40.718Z,64.90
2023-02-11T05:06:13.438Z,45.90
2023-02-11T05:06:45.513Z,36.17
2023-02-11T05:07:20.260Z,42.05
2023-02-11T05:07:52.389Z,40.70
2023-02-11T05:08:24.569Z,45.55
2023-02-11T05:08:59.326Z,41.75
2023-02-11T05:09:31.560Z,67.85
2023-02-11T05:10:04.537Z,40.83
2023-02-11T05:10:42.834Z,50.20
2023-02-11T05:11:17.244Z,42.65
2023-02-11T05:11:50.038Z,45.13
2023-02-11T05:12:24.791Z,42.70
2023-02-11T05:12:56.875Z,101.40
2023-02-11T05:13:29.210Z,48.35
2023-02-11T05:14:03.946Z,40.88
2023-02-11T05:14:36.099Z,75.53
2023-02-11T05:15:08.573Z,41.85
2023-02-11T05:15:40.955Z,49.75
2023-02-11T05:16:16.068Z,41.40
2023-02-11T05:16:48.587Z,41.55
2023-02-11T05:17:20.711Z,64.80
2023-02-11T05:17:55.682Z,52.92
2023-02-11T05:18:27.883Z,44.70
2023-02-11T05:19:02.168Z,58.30
2023-02-11T05:19:39.609Z,47.85
2023-02-11T05:20:11.956Z,45.15
2023-02-11T05:20:44.322Z,44.50
2023-02-11T05:21:21.748Z,69.63
2023-02-11T05:22:02.559Z,57.55
2023-02-11T05:22:37.262Z,45.65
2023-02-11T05:23:12.221Z,52.75
2023-02-11T05:23:45.476Z,57.45
2023-02-11T05:24:17.564Z,45.72
2023-02-11T05:24:53.673Z,56.78
2023-02-11T05:25:25.861Z,46.40
2023-02-11T05:25:59.902Z,44.53
2023-02-11T05:26:35.063Z,54.33
2023-02-11T05:27:07.315Z,52.33
2023-02-11T05:27:39.462Z,90.50
2023-02-11T05:28:14.282Z,59.80
2023-02-11T05:28:46.460Z,38.25
2023-02-11T05:29:20.968Z,62.58
2023-02-11T05:29:55.793Z,44.45
2023-02-11T05:30:28.334Z,63.75
2023-02-11T05:31:00.699Z,47.22
2023-02-11T05:31:35.539Z,70.05
2023-02-11T05:32:09.127Z,49.88
2023-02-11T05:32:41.211Z,55.03
2023-02-11T05:33:16.030Z,73.18
2023-02-11T05:33:48.235Z,61.13
2023-02-11T05:34:20.384Z,63.95
2023-02-11T05:34:57.676Z,54.92
2023-02-11T05:35:29.745Z,52.58
2023-02-11T05:36:04.195Z,59.38
2023-02-11T05:36:39.137Z,117.15
2023-02-11T05:37:11.395Z,42.95
2023-02-11T05:37:43.778Z,54.22
2023-02-11T05:38:18.596Z,76.20
2023-02-11T05:38:51.076Z,46.47
2023-02-11T05:39:23.268Z,51.80
2023-02-11T05:39:55.367Z,47.35
2023-02-11T05:40:30.109Z,45.33
2023-02-11T05:41:03.048Z,41.58
2023-02-11T05:41:35.184Z,91.10
2023-02-11T05:42:10.056Z,41.42
2023-02-11T05:42:42.178Z,62.42
2023-02-11T05:43:14.247Z,65.47
2023-02-11T05:43:51.098Z,56.88
2023-02-11T05:44:23.189Z,47.33
2023-02-11T05:44:55.399Z,41.92
2023-02-11T05:45:30.377Z,54.45
2023-02-11T05:46:03.354Z,68.85
2023-02-11T05:46:37.976Z,57.75
2023-02-11T05:47:12.659Z,46.53
2023-02-11T05:47:44.870Z,40.58
2023-02-11T05:48:17.889Z,58.40
2023-02-11T05:48:52.884Z,45.10
2023-02-11T05:49:25.100Z,63.72
2023-02-11T05:49:59.844Z,56.42
2023-02-11T05:50:34.621Z,53.05
2023-02-11T05:51:06.732Z,255.88
2023-02-11T05:51:38.899Z,76.93
2023-02-11T05:52:13.549Z,82.03
2023-02-11T05:52:45.637Z,83.43
2023-02-11T05:53:18.127Z,92.65
2023-02-11T05:53:53.090Z,80.10
2023-02-11T05:54:28.181Z,88.18
2023-02-11T05:55:00.340Z,108.65
2023-02-11T05:55:35.029Z,83.22
2023-02-11T05:56:07.625Z,77.80
2023-02-11T05:56:39.740Z,57.53
2023-02-11T05:57:14.433Z,36.72
2023-02-11T05:57:46.920Z,64.20
2023-02-11T05:58:19.071Z,36.58
2023-02-11T05:58:53.876Z,46.63
2023-02-11T05:59:26.400Z,47.78
2023-02-11T05:59:58.482Z,39.72
2023-02-11T06:00:33.344Z,50.85
2023-02-11T06:01:05.560Z,44.60
2023-02-11T06:01:37.785Z,78.32
2023-02-11T06:02:13.333Z,77.95
2023-02-11T06:02:45.496Z,82.82
2023-02-11T06:03:17.657Z,71.45
2023-02-11T06:03:54.120Z,83.82
2023-02-11T06:04:27.200Z,70.30
2023-02-11T06:05:01.953Z,40.72
2023-02-11T06:05:36.778Z,59.38
2023-02-11T06:06:10.563Z,68.80
2023-02-11T06:06:45.581Z,46.65
2023-02-11T06:07:20.324Z,54.78
2023-02-11T06:07:52.574Z,94.35
2023-02-11T06:08:24.766Z,69.78
2023-02-11T06:08:56.961Z,77.47
2023-02-11T06:09:31.609Z,68.38
2023-02-11T06:10:04.426Z,60.17
2023-02-11T06:10:37.523Z,62.05
2023-02-11T06:11:12.357Z,53.15
2023-02-11T06:11:47.227Z,64.70
2023-02-11T06:12:22.176Z,112.45
2023-02-11T06:12:56.903Z,135.18
2023-02-11T06:13:28.979Z,154.65
2023-02-11T06:14:04.992Z,94.47
2023-02-11T06:14:39.978Z,117.53
2023-02-11T06:15:12.235Z,146.18
2023-02-11T06:15:44.565Z,103.30
2023-02-11T06:16:19.386Z,113.43
2023-02-11T06:16:56.206Z,81.97
2023-02-11T06:17:31.758Z,120.35
2023-02-11T06:18:07.105Z,94.10
2023-02-11T07:05:28.885Z,112.68
2023-02-11T07:06:01.180Z,125.07
2023-02-11T07:06:33.330Z,101.43
2023-02-11T07:07:11.026Z,96.75
2023-02-11T07:07:43.201Z,68.05
2023-02-11T07:08:20.395Z,63.63
2023-02-11T07:08:56.020Z,70.90
2023-02-11T07:09:31.364Z,66.43
2023-02-11T07:10:06.806Z,69.38
2023-02-11T07:10:39.061Z,44.13
2023-02-11T07:11:13.045Z,67.68
2023-02-11T07:11:47.906Z,60.75
2023-02-11T07:12:20.178Z,79.72
2023-02-11T07:12:52.278Z,75.03
2023-02-11T07:13:27.131Z,97.07
2023-02-11T07:14:02.046Z,70.20
2023-02-11T07:14:34.372Z,76.28
2023-02-11T07:15:09.665Z,52.95
2023-02-11T07:15:41.790Z,67.75
2023-02-11T07:16:17.576Z,44.33
2023-02-11T07:16:52.275Z,51.67
2023-02-11T07:17:24.538Z,45.45
2023-02-11T07:17:56.678Z,40.40
2023-02-11T07:18:31.438Z,52.30
2023-02-11T07:19:03.783Z,65.38
2023-02-11T07:19:36.041Z,58.25
2023-02-11T07:20:12.535Z,98.35
2023-02-11T07:20:47.393Z,80.05
2023-02-11T07:21:21.468Z,93.68
2023-02-11T07:21:56.166Z,73.30
2023-02-11T07:22:30.500Z,75.00
2023-02-11T07:23:02.750Z,41.28
2023-02-11T07:23:38.486Z,69.90
2023-02-11T07:24:11.579Z,46.28
2023-02-11T07:24:44.151Z,72.45
2023-02-11T07:25:19.100Z,72.88
2023-02-11T07:25:51.623Z,47.38
2023-02-11T07:26:25.948Z,83.93
2023-02-11T07:27:01.683Z,55.78
2023-02-11T07:27:33.884Z,63.20
2023-02-11T07:28:06.171Z,62.60
2023-02-11T07:28:44.980Z,52.70
2023-02-11T07:29:17.043Z,68.63
2023-02-11T07:29:49.115Z,55.13
2023-02-11T07:30:24.234Z,52.97
2023-02-11T07:30:56.420Z,52.30
2023-02-11T07:31:30.326Z,59.33
2023-02-11T07:32:05.225Z,71.30
2023-02-11T07:32:37.462Z,58.13
2023-02-11T07:33:09.593Z,73.95
2023-02-11T07:33:48.177Z,52.00
2023-02-11T07:34:20.429Z,61.70
2023-02-11T07:34:55.218Z,54.08
2023-02-11T07:35:27.443Z,59.30
2023-02-11T07:36:03.994Z,53.35
2023-02-11T07:36:39.506Z,73.47
2023-02-11T07:37:11.778Z,94.60
2023-02-11T07:37:44.229Z,67.47
2023-02-11T07:38:18.923Z,78.57
2023-02-11T07:38:51.064Z,65.63
2023-02-11T07:39:27.540Z,59.55
2023-02-11T07:40:02.539Z,57.67
2023-02-11T07:40:34.626Z,55.40
2023-02-11T07:41:09.511Z,65.43
2023-02-11T07:41:44.559Z,109.45
2023-02-11T07:42:16.966Z,62.08
2023-02-11T07:42:49.261Z,69.85
2023-02-11T07:43:26.072Z,68.38
2023-02-11T07:44:00.495Z,66.78
2023-02-11T07:44:33.749Z,56.15
2023-02-11T07:45:09.473Z,56.70
2023-02-11T07:45:41.809Z,65.90
2023-02-11T07:46:15.582Z,65.90
2023-02-11T07:46:50.359Z,57.85
2023-02-11T07:47:22.573Z,69.68
2023-02-11T07:47:54.794Z,73.10
2023-02-11T07:48:29.636Z,61.92
2023-02-11T07:49:01.973Z,72.82
2023-02-11T07:49:34.260Z,84.93
2023-02-11T07:50:09.688Z,68.25
2023-02-11T07:50:41.861Z,68.43
2023-02-11T07:51:21.388Z,80.13
2023-02-11T07:51:56.103Z,77.53
2023-02-11T07:52:30.068Z,66.95
2023-02-11T07:53:02.514Z,66.82
2023-02-11T07:53:37.569Z,78.32
2023-02-11T07:54:11.755Z,87.18
2023-02-11T07:54:44.045Z,113.40
2023-02-11T07:55:18.847Z,82.63
2023-02-11T07:59:31.669Z,81.60
2023-02-11T08:00:05.049Z,60.55
2023-02-11T08:00:46.167Z,282.20
2023-02-11T08:01:22.560Z,77.43
2023-02-11T08:01:57.360Z,60.50
2023-02-11T08:02:29.643Z,111.20
2023-02-11T08:03:01.974Z,50.65
2023-02-11T08:03:43.820Z,71.85
2023-02-11T08:04:15.938Z,67.07
2023-02-11T08:04:52.575Z,73.57
2023-02-11T08:05:24.778Z,58.50
2023-02-11T08:05:59.596Z,61.58
2023-02-11T08:06:38.066Z,53.70
2023-02-11T08:07:10.194Z,64.13
2023-02-11T08:07:44.886Z,46.17
2023-02-11T08:08:18.034Z,55.60
2023-02-11T08:08:52.891Z,60.03
2023-02-11T08:09:27.806Z,66.07
2023-02-11T08:10:01.818Z,42.83
2023-02-11T08:10:37.197Z,54.13
2023-02-11T08:11:15.232Z,58.30
2023-02-11T08:11:47.512Z,63.78
2023-02-11T08:12:22.239Z,52.53
2023-02-11T08:12:57.209Z,65.90
2023-02-11T08:13:29.287Z,56.72
2023-02-11T08:14:04.271Z,67.57
2023-02-11T08:14:36.638Z,59.42
2023-02-11T08:15:09.903Z,61.85
2023-02-11T08:15:44.583Z,67.32
2023-02-11T08:16:21.268Z,59.95
2023-02-11T08:16:59.817Z,67.40
2023-02-11T08:17:32.084Z,76.82
2023-02-11T08:18:04.363Z,80.68
2023-02-11T08:18:39.280Z,68.90
2023-02-11T08:19:16.408Z,48.63
2023-02-11T08:19:49.127Z,76.20
2023-02-11T08:20:24.085Z,61.08
2023-02-11T08:20:56.552Z,61.88
2023-02-11T08:21:29.222Z,64.72
2023-02-11T08:22:06.550Z,72.15
2023-02-11T08:22:38.621Z,60.70
2023-02-11T08:23:10.847Z,68.07
2023-02-11T08:23:47.289Z,72.03
2023-02-11T08:24:19.436Z,72.32
2023-02-11T08:24:54.171Z,69.80
2023-02-11T08:25:27.080Z,73.13
2023-02-11T08:26:02.053Z,61.53
2023-02-11T08:26:37.655Z,84.72
2023-02-11T08:27:09.866Z,57.65
2023-02-11T08:27:41.987Z,103.47
2023-02-11T08:28:16.932Z,96.22
2023-02-11T08:28:50.917Z,99.88
2023-02-11T08:29:23.257Z,98.10
2023-02-11T08:30:00.063Z,68.90
2023-02-11T08:30:32.482Z,84.38
2023-02-11T08:31:06.464Z,105.93
2023-02-11T08:31:43.703Z,114.43
2023-02-11T08:32:18.336Z,78.57
2023-02-11T08:32:50.461Z,86.40
2023-02-11T08:33:25.201Z,86.80
2023-02-11T08:33:58.374Z,93.15
2023-02-11T08:34:34.071Z,91.38
2023-02-11T08:35:08.033Z,104.18
2023-02-11T08:35:42.821Z,117.10
2023-02-11T08:36:16.737Z,86.75
2023-02-11T08:36:49.549Z,100.57
2023-02-11T08:37:26.994Z,106.53
2023-02-11T08:37:59.137Z,85.13
2023-02-11T08:38:31.318Z,82.03
2023-02-11T08:39:18.519Z,95.20
2023-02-11T08:39:52.058Z,109.43
2023-02-11T08:40:26.895Z,107.95
2023-02-11T08:41:00.464Z,71.05
2023-02-11T08:41:33.521Z,74.00
2023-02-11T08:42:08.318Z,97.35
2023-02-11T08:42:40.592Z,102.50
2023-02-11T08:43:12.682Z,91.95
2023-02-11T08:43:49.469Z,70.75
2023-02-11T08:44:22.848Z,121.53
2023-02-11T08:44:57.560Z,90.60
2023-02-11T08:45:29.758Z,61.58
2023-02-11T08:46:03.290Z,135.63
2023-02-11T08:46:38.316Z,114.25
2023-02-11T08:47:10.640Z,77.80
2023-02-11T08:47:42.777Z,102.15
2023-02-11T08:48:17.613Z,83.20
2023-02-11T08:48:49.952Z,98.68
2023-02-11T08:49:25.391Z,110.90
2023-02-11T08:49:57.635Z,94.18
2023-02-11T08:50:29.713Z,114.40
2023-02-11T08:51:10.255Z,145.73
2023-02-11T08:52:17.159Z,93.20
2023-02-11T08:52:52.553Z,79.63
2023-02-11T08:53:25.135Z,92.07
2023-02-11T08:54:00.719Z,96.45
2023-02-11T08:54:32.957Z,75.63
2023-02-11T08:55:08.406Z,80.00
2023-02-11T08:55:40.510Z,120.70
2023-02-11T08:56:13.908Z,112.05
2023-02-11T08:56:48.937Z,91.97
2023-02-11T08:57:21.021Z,126.68
2023-02-11T08:57:55.704Z,103.15
2023-02-11T08:58:27.960Z,78.05
2023-02-11T08:59:00.049Z,105.63
2023-02-11T08:59:34.913Z,108.00
2023-02-11T09:00:08.777Z,83.65
2023-02-11T09:00:45.318Z,81.43
2023-02-11T09:01:22.713Z,96.68
2023-02-11T09:01:58.157Z,100.82
2023-02-11T09:02:30.431Z,90.13
2023-02-11T09:03:02.657Z,132.30
2023-02-11T09:03:37.403Z,101.68
2023-02-11T09:04:10.849Z,131.98
2023-02-11T09:04:45.590Z,86.47
2023-02-11T09:05:18.093Z,95.55
2023-02-11T09:05:53.321Z,96.00
2023-02-11T09:06:29.672Z,112.30
2023-02-11T09:07:01.861Z,138.18
2023-02-11T09:07:36.573Z,95.53
2023-02-11T09:08:11.753Z,103.35
2023-02-11T09:08:46.552Z,82.68
2023-02-11T09:09:21.425Z,107.35
2023-02-11T09:09:53.747Z,98.50
2023-02-11T09:10:25.996Z,121.63
2023-02-11T09:11:00.835Z,62.03
2023-02-11T09:11:35.555Z,82.60
2023-02-11T09:12:10.474Z,57.75
2023-02-11T09:12:42.592Z,103.55
2023-02-11T09:13:14.863Z,112.03
2023-02-11T09:13:52.587Z,112.78
2023-02-11T09:14:26.062Z,79.35
2023-02-11T09:15:01.142Z,91.35
2023-02-11T09:15:33.699Z,112.68
2023-02-11T09:16:06.765Z,102.60
2023-02-11T09:16:41.777Z,98.80
2023-02-11T09:17:13.996Z,97.22
2023-02-11T09:17:46.148Z,120.95
2023-02-11T09:18:20.831Z,106.07
2023-02-11T09:18:53.556Z,96.00
2023-02-11T09:19:28.402Z,95.55
2023-02-11T09:20:00.721Z,137.43
2023-02-11T09:20:33.049Z,106.85
2023-02-11T09:21:10.014Z,97.82
2023-02-11T09:21:42.354Z,99.30
2023-02-11T09:22:17.132Z,121.53
2023-02-11T09:22:49.292Z,162.63
2023-02-11T09:23:24.057Z,103.00
2023-02-11T09:24:01.943Z,100.72
2023-02-11T09:24:34.037Z,129.27
2023-02-11T09:25:09.522Z,88.90
2023-02-11T09:25:41.986Z,105.93
2023-02-11T09:26:15.965Z,78.80
2023-02-11T09:26:50.828Z,108.97
2023-02-11T09:27:23.019Z,132.70
2023-02-11T09:27:55.207Z,125.60
2023-02-11T09:28:30.046Z,132.15
2023-02-11T09:29:03.688Z,112.97
2023-02-11T09:29:38.437Z,132.15
2023-02-11T09:30:12.106Z,117.78
2023-02-11T09:30:47.036Z,134.90
2023-02-11T09:31:21.295Z,128.27
2023-02-11T09:31:56.203Z,68.90
2023-02-11T09:32:28.433Z,118.82
2023-02-11T09:33:00.598Z,118.97
2023-02-11T09:33:35.469Z,132.45
2023-02-11T09:34:07.926Z,98.97
2023-02-11T09:34:42.674Z,142.75